sensor_id;sensor_type;location;lat;lon;timestamp;P1;durP1;ratioP1;P2;durP2;ratioP2
74894;SDS011;63447;49.446;8.666;2023-07-29T00:02:23;4.10;;;1.30;;
74894;SDS011;63447;49.446;8.666;2023-07-29T00:07:19;4.23;;;1.27;;
74894;SDS011;63447;49.446;8.666;2023-07-29T00:09:47;3.75;;;1.30;;
74894;SDS011;63447;49.446;8.666;2023-07-29T00:12:17;4.55;;;1.10;;
74894;SDS011;63447;49.446;8.666;2023-07-29T00:14:44;4.60;;;1.05;;
74894;SDS011;63447;49.446;8.666;2023-07-29T00:17:10;4.37;;;1.20;;
74894;SDS011;63447;49.446;8.666;2023-07-29T00:19:37;4.40;;;1.20;;
74894;SDS011;63447;49.446;8.666;2023-07-29T00:22:07;3.50;;;1.17;;
74894;SDS011;63447;49.446;8.666;2023-07-29T00:24:33;3.10;;;1.10;;
74894;SDS011;63447;49.446;8.666;2023-07-29T00:26:59;4.32;;;1.20;;
74894;SDS011;63447;49.446;8.666;2023-07-29T00:29:24;4.10;;;1.03;;
74894;SDS011;63447;49.446;8.666;2023-07-29T00:31:49;3.73;;;1.00;;
74894;SDS011;63447;49.446;8.666;2023-07-29T00:34:14;2.93;;;1.00;;
74894;SDS011;63447;49.446;8.666;2023-07-29T00:36:44;2.88;;;0.98;;
74894;SDS011;63447;49.446;8.666;2023-07-29T00:39:12;3.70;;;1.10;;
74894;SDS011;63447;49.446;8.666;2023-07-29T00:41:37;2.90;;;1.00;;
74894;SDS011;63447;49.446;8.666;2023-07-29T00:44:03;3.15;;;1.02;;
74894;SDS011;63447;49.446;8.666;2023-07-29T00:46:32;3.53;;;1.00;;
74894;SDS011;63447;49.446;8.666;2023-07-29T00:49:01;4.38;;;1.27;;
74894;SDS011;63447;49.446;8.666;2023-07-29T00:51:27;3.58;;;1.02;;
74894;SDS011;63447;49.446;8.666;2023-07-29T00:53:52;3.85;;;1.10;;
74894;SDS011;63447;49.446;8.666;2023-07-29T00:56:19;3.00;;;0.95;;
74894;SDS011;63447;49.446;8.666;2023-07-29T00:58:45;3.37;;;1.00;;
74894;SDS011;63447;49.446;8.666;2023-07-29T01:01:11;3.38;;;0.90;;
74894;SDS011;63447;49.446;8.666;2023-07-29T01:03:37;3.38;;;1.05;;
74894;SDS011;63447;49.446;8.666;2023-07-29T01:06:12;3.40;;;1.10;;
74894;SDS011;63447;49.446;8.666;2023-07-29T01:08:45;3.90;;;1.00;;
74894;SDS011;63447;49.446;8.666;2023-07-29T01:13:58;3.85;;;1.10;;
74894;SDS011;63447;49.446;8.666;2023-07-29T01:16:32;2.85;;;1.00;;
74894;SDS011;63447;49.446;8.666;2023-07-29T01:19:11;3.10;;;1.05;;
74894;SDS011;63447;49.446;8.666;2023-07-29T01:21:59;3.63;;;1.23;;
74894;SDS011;63447;49.446;8.666;2023-07-29T01:24:26;3.53;;;0.80;;
74894;SDS011;63447;49.446;8.666;2023-07-29T01:26:51;4.87;;;1.00;;
74894;SDS011;63447;49.446;8.666;2023-07-29T01:29:16;3.80;;;1.07;;
74894;SDS011;63447;49.446;8.666;2023-07-29T01:31:45;3.10;;;0.93;;
74894;SDS011;63447;49.446;8.666;2023-07-29T01:34:36;4.20;;;1.20;;
74894;SDS011;63447;49.446;8.666;2023-07-29T01:37:06;4.18;;;1.23;;
74894;SDS011;63447;49.446;8.666;2023-07-29T01:39:37;3.03;;;1.00;;
74894;SDS011;63447;49.446;8.666;2023-07-29T01:42:06;4.28;;;1.52;;
74894;SDS011;63447;49.446;8.666;2023-07-29T01:44:34;4.07;;;1.27;;
74894;SDS011;63447;49.446;8.666;2023-07-29T01:47:05;3.65;;;1.40;;
74894;SDS011;63447;49.446;8.666;2023-07-29T01:49:31;3.47;;;1.38;;
74894;SDS011;63447;49.446;8.666;2023-07-29T01:51:56;2.73;;;0.90;;
74894;SDS011;63447;49.446;8.666;2023-07-29T01:54:21;4.20;;;1.20;;
74894;SDS011;63447;49.446;8.666;2023-07-29T01:56:47;3.10;;;0.97;;
74894;SDS011;63447;49.446;8.666;2023-07-29T01:59:12;3.47;;;1.10;;
74894;SDS011;63447;49.446;8.666;2023-07-29T02:01:38;3.13;;;1.10;;
74894;SDS011;63447;49.446;8.666;2023-07-29T02:04:03;3.10;;;0.90;;
74894;SDS011;63447;49.446;8.666;2023-07-29T02:06:31;3.50;;;1.02;;
74894;SDS011;63447;49.446;8.666;2023-07-29T02:08:56;4.20;;;1.20;;
74894;SDS011;63447;49.446;8.666;2023-07-29T02:11:22;2.93;;;1.00;;
74894;SDS011;63447;49.446;8.666;2023-07-29T02:13:52;3.35;;;1.00;;
74894;SDS011;63447;49.446;8.666;2023-07-29T02:16:17;3.20;;;0.90;;
74894;SDS011;63447;49.446;8.666;2023-07-29T02:18:43;4.07;;;1.42;;
74894;SDS011;63447;49.446;8.666;2023-07-29T02:21:08;3.67;;;1.00;;
74894;SDS011;63447;49.446;8.666;2023-07-29T02:23:33;2.80;;;0.90;;
74894;SDS011;63447;49.446;8.666;2023-07-29T02:26:01;3.65;;;0.98;;
74894;SDS011;63447;49.446;8.666;2023-07-29T02:28:26;3.03;;;0.90;;
74894;SDS011;63447;49.446;8.666;2023-07-29T02:31:14;2.80;;;0.90;;
74894;SDS011;63447;49.446;8.666;2023-07-29T02:33:48;3.78;;;0.93;;
74894;SDS011;63447;49.446;8.666;2023-07-29T02:36:14;3.85;;;1.10;;
74894;SDS011;63447;49.446;8.666;2023-07-29T02:38:42;3.72;;;1.00;;
74894;SDS011;63447;49.446;8.666;2023-07-29T02:41:08;3.22;;;1.00;;
74894;SDS011;63447;49.446;8.666;2023-07-29T02:43:36;3.47;;;1.08;;
74894;SDS011;63447;49.446;8.666;2023-07-29T02:46:02;4.13;;;0.90;;
74894;SDS011;63447;49.446;8.666;2023-07-29T02:48:29;3.22;;;1.02;;
74894;SDS011;63447;49.446;8.666;2023-07-29T02:50:55;4.18;;;1.20;;
74894;SDS011;63447;49.446;8.666;2023-07-29T02:53:23;4.13;;;1.20;;
74894;SDS011;63447;49.446;8.666;2023-07-29T02:55:48;3.50;;;1.00;;
74894;SDS011;63447;49.446;8.666;2023-07-29T02:58:16;4.70;;;1.30;;
74894;SDS011;63447;49.446;8.666;2023-07-29T03:00:41;3.45;;;1.13;;
74894;SDS011;63447;49.446;8.666;2023-07-29T03:03:09;3.10;;;1.10;;
74894;SDS011;63447;49.446;8.666;2023-07-29T03:05:35;3.53;;;1.10;;
74894;SDS011;63447;49.446;8.666;2023-07-29T03:08:00;3.42;;;0.95;;
74894;SDS011;63447;49.446;8.666;2023-07-29T03:10:26;4.72;;;1.08;;
74894;SDS011;63447;49.446;8.666;2023-07-29T03:12:53;3.80;;;1.10;;
74894;SDS011;63447;49.446;8.666;2023-07-29T03:15:22;3.97;;;1.10;;
74894;SDS011;63447;49.446;8.666;2023-07-29T03:17:48;4.20;;;1.00;;
74894;SDS011;63447;49.446;8.666;2023-07-29T03:20:14;3.40;;;1.17;;
74894;SDS011;63447;49.446;8.666;2023-07-29T03:22:40;4.28;;;1.13;;
74894;SDS011;63447;49.446;8.666;2023-07-29T03:25:05;3.90;;;1.20;;
74894;SDS011;63447;49.446;8.666;2023-07-29T03:27:31;4.68;;;1.27;;
74894;SDS011;63447;49.446;8.666;2023-07-29T03:29:56;3.53;;;1.10;;
74894;SDS011;63447;49.446;8.666;2023-07-29T03:32:21;4.13;;;1.10;;
74894;SDS011;63447;49.446;8.666;2023-07-29T03:34:47;4.18;;;1.17;;
74894;SDS011;63447;49.446;8.666;2023-07-29T03:37:15;7.38;;;1.20;;
74894;SDS011;63447;49.446;8.666;2023-07-29T03:39:41;4.32;;;1.10;;
74894;SDS011;63447;49.446;8.666;2023-07-29T03:42:06;3.00;;;1.00;;
74894;SDS011;63447;49.446;8.666;2023-07-29T03:44:32;4.57;;;1.17;;
74894;SDS011;63447;49.446;8.666;2023-07-29T03:47:04;3.80;;;1.10;;
74894;SDS011;63447;49.446;8.666;2023-07-29T03:49:30;3.40;;;1.20;;
74894;SDS011;63447;49.446;8.666;2023-07-29T03:51:55;3.47;;;1.20;;
74894;SDS011;63447;49.446;8.666;2023-07-29T03:54:21;3.53;;;1.20;;
74894;SDS011;63447;49.446;8.666;2023-07-29T03:56:48;3.10;;;0.93;;
74894;SDS011;63447;49.446;8.666;2023-07-29T03:59:17;3.85;;;1.20;;
74894;SDS011;63447;49.446;8.666;2023-07-29T04:01:42;4.07;;;1.15;;
74894;SDS011;63447;49.446;8.666;2023-07-29T04:04:12;3.78;;;1.27;;
74894;SDS011;63447;49.446;8.666;2023-07-29T04:06:37;4.38;;;1.20;;
74894;SDS011;63447;49.446;8.666;2023-07-29T04:09:02;5.40;;;1.40;;
74894;SDS011;63447;49.446;8.666;2023-07-29T04:11:28;3.20;;;1.10;;
74894;SDS011;63447;49.446;8.666;2023-07-29T04:13:53;3.73;;;1.20;;
74894;SDS011;63447;49.446;8.666;2023-07-29T04:16:18;3.97;;;1.13;;
74894;SDS011;63447;49.446;8.666;2023-07-29T04:18:46;4.47;;;1.20;;
74894;SDS011;63447;49.446;8.666;2023-07-29T04:21:13;3.40;;;1.20;;
74894;SDS011;63447;49.446;8.666;2023-07-29T04:23:39;3.55;;;1.38;;
74894;SDS011;63447;49.446;8.666;2023-07-29T04:26:06;3.67;;;1.10;;
74894;SDS011;63447;49.446;8.666;2023-07-29T04:28:31;3.50;;;1.20;;
74894;SDS011;63447;49.446;8.666;2023-07-29T04:30:57;3.23;;;1.17;;
74894;SDS011;63447;49.446;8.666;2023-07-29T04:33:22;3.83;;;1.33;;
74894;SDS011;63447;49.446;8.666;2023-07-29T04:35:50;4.18;;;1.30;;
74894;SDS011;63447;49.446;8.666;2023-07-29T04:38:18;5.05;;;1.20;;
74894;SDS011;63447;49.446;8.666;2023-07-29T04:40:43;3.80;;;1.20;;
74894;SDS011;63447;49.446;8.666;2023-07-29T04:43:08;5.97;;;1.40;;
74894;SDS011;63447;49.446;8.666;2023-07-29T04:45:34;6.60;;;1.50;;
74894;SDS011;63447;49.446;8.666;2023-07-29T04:48:01;5.15;;;1.50;;
74894;SDS011;63447;49.446;8.666;2023-07-29T04:50:26;3.80;;;1.30;;
74894;SDS011;63447;49.446;8.666;2023-07-29T04:52:54;5.73;;;1.40;;
74894;SDS011;63447;49.446;8.666;2023-07-29T04:55:19;3.67;;;1.40;;
74894;SDS011;63447;49.446;8.666;2023-07-29T04:57:45;3.83;;;1.43;;
74894;SDS011;63447;49.446;8.666;2023-07-29T05:00:10;3.90;;;1.50;;
74894;SDS011;63447;49.446;8.666;2023-07-29T05:02:40;5.03;;;1.45;;
74894;SDS011;63447;49.446;8.666;2023-07-29T05:05:06;5.53;;;1.48;;
74894;SDS011;63447;49.446;8.666;2023-07-29T05:07:32;5.75;;;1.60;;
74894;SDS011;63447;49.446;8.666;2023-07-29T05:09:58;4.68;;;1.33;;
74894;SDS011;63447;49.446;8.666;2023-07-29T05:12:23;5.00;;;1.60;;
74894;SDS011;63447;49.446;8.666;2023-07-29T05:14:51;4.57;;;1.73;;
74894;SDS011;63447;49.446;8.666;2023-07-29T05:17:19;3.85;;;1.60;;
74894;SDS011;63447;49.446;8.666;2023-07-29T05:19:44;3.60;;;1.60;;
74894;SDS011;63447;49.446;8.666;2023-07-29T05:22:10;4.88;;;1.60;;
74894;SDS011;63447;49.446;8.666;2023-07-29T05:24:35;5.43;;;1.80;;
74894;SDS011;63447;49.446;8.666;2023-07-29T05:27:00;4.30;;;1.70;;
74894;SDS011;63447;49.446;8.666;2023-07-29T05:29:26;4.23;;;1.53;;
74894;SDS011;63447;49.446;8.666;2023-07-29T05:31:51;6.37;;;1.70;;
74894;SDS011;63447;49.446;8.666;2023-07-29T05:34:16;5.20;;;1.57;;
74894;SDS011;63447;49.446;8.666;2023-07-29T05:36:42;4.83;;;1.90;;
74894;SDS011;63447;49.446;8.666;2023-07-29T05:39:07;6.68;;;2.47;;
74894;SDS011;63447;49.446;8.666;2023-07-29T05:41:35;6.10;;;2.33;;
74894;SDS011;63447;49.446;8.666;2023-07-29T05:44:02;4.47;;;2.00;;
74894;SDS011;63447;49.446;8.666;2023-07-29T05:46:30;4.00;;;1.83;;
74894;SDS011;63447;49.446;8.666;2023-07-29T05:48:55;6.70;;;2.10;;
74894;SDS011;63447;49.446;8.666;2023-07-29T05:51:25;4.30;;;2.17;;
74894;SDS011;63447;49.446;8.666;2023-07-29T05:53:53;4.97;;;1.90;;
74894;SDS011;63447;49.446;8.666;2023-07-29T05:56:18;4.63;;;1.70;;
74894;SDS011;63447;49.446;8.666;2023-07-29T05:58:46;4.72;;;1.67;;
74894;SDS011;63447;49.446;8.666;2023-07-29T06:01:14;4.32;;;1.63;;
74894;SDS011;63447;49.446;8.666;2023-07-29T06:03:40;5.40;;;2.37;;
74894;SDS011;63447;49.446;8.666;2023-07-29T06:06:08;5.60;;;2.72;;
74894;SDS011;63447;49.446;8.666;2023-07-29T06:08:36;9.75;;;4.53;;
74894;SDS011;63447;49.446;8.666;2023-07-29T06:11:01;5.85;;;1.80;;
74894;SDS011;63447;49.446;8.666;2023-07-29T06:13:26;5.35;;;1.90;;
74894;SDS011;63447;49.446;8.666;2023-07-29T06:15:52;5.30;;;1.70;;
74894;SDS011;63447;49.446;8.666;2023-07-29T06:18:19;4.65;;;1.70;;
74894;SDS011;63447;49.446;8.666;2023-07-29T06:20:45;3.83;;;1.40;;
74894;SDS011;63447;49.446;8.666;2023-07-29T06:23:13;4.22;;;1.60;;
74894;SDS011;63447;49.446;8.666;2023-07-29T06:25:38;4.60;;;1.40;;
74894;SDS011;63447;49.446;8.666;2023-07-29T06:28:04;4.15;;;1.50;;
74894;SDS011;63447;49.446;8.666;2023-07-29T06:30:29;3.58;;;1.40;;
74894;SDS011;63447;49.446;8.666;2023-07-29T06:32:55;4.40;;;1.90;;
74894;SDS011;63447;49.446;8.666;2023-07-29T06:35:20;3.87;;;1.80;;
74894;SDS011;63447;49.446;8.666;2023-07-29T06:37:45;5.03;;;2.13;;
74894;SDS011;63447;49.446;8.666;2023-07-29T06:40:11;4.90;;;2.10;;
74894;SDS011;63447;49.446;8.666;2023-07-29T06:42:40;10.45;;;2.10;;
74894;SDS011;63447;49.446;8.666;2023-07-29T06:45:05;4.03;;;1.77;;
74894;SDS011;63447;49.446;8.666;2023-07-29T06:47:31;4.50;;;1.95;;
74894;SDS011;63447;49.446;8.666;2023-07-29T06:49:57;5.30;;;2.10;;
74894;SDS011;63447;49.446;8.666;2023-07-29T06:52:24;8.00;;;4.17;;
74894;SDS011;63447;49.446;8.666;2023-07-29T06:54:50;7.13;;;2.85;;
74894;SDS011;63447;49.446;8.666;2023-07-29T06:57:18;5.18;;;2.35;;
74894;SDS011;63447;49.446;8.666;2023-07-29T06:59:48;4.97;;;2.20;;
74894;SDS011;63447;49.446;8.666;2023-07-29T07:02:13;5.37;;;2.00;;
74894;SDS011;63447;49.446;8.666;2023-07-29T07:04:38;5.30;;;2.28;;
74894;SDS011;63447;49.446;8.666;2023-07-29T07:07:04;7.03;;;2.63;;
74894;SDS011;63447;49.446;8.666;2023-07-29T07:09:29;6.03;;;2.42;;
74894;SDS011;63447;49.446;8.666;2023-07-29T07:11:55;6.53;;;2.30;;
74894;SDS011;63447;49.446;8.666;2023-07-29T07:14:20;6.10;;;2.30;;
74894;SDS011;63447;49.446;8.666;2023-07-29T07:16:45;5.10;;;2.40;;
74894;SDS011;63447;49.446;8.666;2023-07-29T07:19:13;6.35;;;2.70;;
74894;SDS011;63447;49.446;8.666;2023-07-29T07:21:38;4.63;;;2.00;;
74894;SDS011;63447;49.446;8.666;2023-07-29T07:24:04;5.00;;;2.40;;
74894;SDS011;63447;49.446;8.666;2023-07-29T07:26:29;6.35;;;2.70;;
74894;SDS011;63447;49.446;8.666;2023-07-29T07:28:54;5.37;;;2.17;;
74894;SDS011;63447;49.446;8.666;2023-07-29T07:31:22;5.88;;;2.30;;
74894;SDS011;63447;49.446;8.666;2023-07-29T07:33:52;5.10;;;2.22;;
74894;SDS011;63447;49.446;8.666;2023-07-29T07:36:23;5.40;;;2.35;;
74894;SDS011;63447;49.446;8.666;2023-07-29T07:38:58;4.82;;;2.30;;
74894;SDS011;63447;49.446;8.666;2023-07-29T07:41:29;6.65;;;2.38;;
74894;SDS011;63447;49.446;8.666;2023-07-29T07:43:59;5.30;;;2.30;;
74894;SDS011;63447;49.446;8.666;2023-07-29T07:46:24;5.78;;;2.38;;
74894;SDS011;63447;49.446;8.666;2023-07-29T07:48:54;5.40;;;2.08;;
74894;SDS011;63447;49.446;8.666;2023-07-29T07:51:19;4.70;;;2.00;;
74894;SDS011;63447;49.446;8.666;2023-07-29T07:53:48;4.50;;;2.10;;
74894;SDS011;63447;49.446;8.666;2023-07-29T07:56:13;5.38;;;2.33;;
74894;SDS011;63447;49.446;8.666;2023-07-29T07:58:38;6.20;;;3.23;;
74894;SDS011;63447;49.446;8.666;2023-07-29T08:01:08;5.28;;;2.50;;
74894;SDS011;63447;49.446;8.666;2023-07-29T08:03:34;6.70;;;2.60;;
74894;SDS011;63447;49.446;8.666;2023-07-29T08:06:02;6.07;;;2.83;;
74894;SDS011;63447;49.446;8.666;2023-07-29T08:08:30;4.80;;;2.03;;
74894;SDS011;63447;49.446;8.666;2023-07-29T08:10:58;5.37;;;2.43;;
74894;SDS011;63447;49.446;8.666;2023-07-29T08:13:24;5.25;;;2.20;;
74894;SDS011;63447;49.446;8.666;2023-07-29T08:15:50;4.90;;;2.35;;
74894;SDS011;63447;49.446;8.666;2023-07-29T08:18:19;4.78;;;2.30;;
74894;SDS011;63447;49.446;8.666;2023-07-29T08:20:58;5.35;;;2.20;;
74894;SDS011;63447;49.446;8.666;2023-07-29T08:23:30;4.78;;;2.20;;
74894;SDS011;63447;49.446;8.666;2023-07-29T08:26:04;6.28;;;2.28;;
74894;SDS011;63447;49.446;8.666;2023-07-29T08:30:57;5.10;;;2.55;;
74894;SDS011;63447;49.446;8.666;2023-07-29T08:33:22;5.13;;;2.47;;
74894;SDS011;63447;49.446;8.666;2023-07-29T08:35:50;7.57;;;2.60;;
74894;SDS011;63447;49.446;8.666;2023-07-29T08:38:16;6.25;;;3.13;;
74894;SDS011;63447;49.446;8.666;2023-07-29T08:46:29;4.90;;;2.47;;
74894;SDS011;63447;49.446;8.666;2023-07-29T08:48:54;6.40;;;2.42;;
74894;SDS011;63447;49.446;8.666;2023-07-29T08:51:24;6.35;;;2.50;;
74894;SDS011;63447;49.446;8.666;2023-07-29T08:53:51;5.88;;;2.80;;
74894;SDS011;63447;49.446;8.666;2023-07-29T08:56:17;5.80;;;2.55;;
74894;SDS011;63447;49.446;8.666;2023-07-29T08:58:43;5.20;;;2.45;;
74894;SDS011;63447;49.446;8.666;2023-07-29T09:01:08;7.05;;;2.70;;
74894;SDS011;63447;49.446;8.666;2023-07-29T09:03:36;6.28;;;2.83;;
74894;SDS011;63447;49.446;8.666;2023-07-29T09:06:04;4.30;;;2.50;;
74894;SDS011;63447;49.446;8.666;2023-07-29T09:08:32;5.82;;;2.50;;
74894;SDS011;63447;49.446;8.666;2023-07-29T09:11:03;5.55;;;2.40;;
74894;SDS011;63447;49.446;8.666;2023-07-29T09:13:32;4.80;;;2.45;;
74894;SDS011;63447;49.446;8.666;2023-07-29T09:15:57;5.13;;;2.25;;
74894;SDS011;63447;49.446;8.666;2023-07-29T09:18:23;5.57;;;2.30;;
74894;SDS011;63447;49.446;8.666;2023-07-29T09:20:53;5.15;;;2.15;;
74894;SDS011;63447;49.446;8.666;2023-07-29T09:23:19;5.97;;;2.15;;
74894;SDS011;63447;49.446;8.666;2023-07-29T09:25:47;4.35;;;2.08;;
74894;SDS011;63447;49.446;8.666;2023-07-29T09:28:16;5.07;;;1.92;;
74894;SDS011;63447;49.446;8.666;2023-07-29T09:30:45;4.70;;;1.75;;
74894;SDS011;63447;49.446;8.666;2023-07-29T09:33:11;4.82;;;2.00;;
74894;SDS011;63447;49.446;8.666;2023-07-29T09:35:39;5.53;;;2.10;;
74894;SDS011;63447;49.446;8.666;2023-07-29T09:38:04;5.13;;;2.03;;
74894;SDS011;63447;49.446;8.666;2023-07-29T09:40:34;4.50;;;2.10;;
74894;SDS011;63447;49.446;8.666;2023-07-29T09:43:06;5.13;;;2.20;;
74894;SDS011;63447;49.446;8.666;2023-07-29T09:45:33;4.22;;;2.00;;
74894;SDS011;63447;49.446;8.666;2023-07-29T09:48:02;4.15;;;1.45;;
74894;SDS011;63447;49.446;8.666;2023-07-29T09:50:30;3.92;;;1.85;;
74894;SDS011;63447;49.446;8.666;2023-07-29T09:52:56;4.50;;;1.80;;
74894;SDS011;63447;49.446;8.666;2023-07-29T09:55:27;4.22;;;1.92;;
74894;SDS011;63447;49.446;8.666;2023-07-29T09:57:56;4.15;;;1.75;;
74894;SDS011;63447;49.446;8.666;2023-07-29T10:00:28;4.88;;;1.50;;
74894;SDS011;63447;49.446;8.666;2023-07-29T10:02:54;4.47;;;1.70;;
74894;SDS011;63447;49.446;8.666;2023-07-29T10:05:21;3.53;;;1.55;;
74894;SDS011;63447;49.446;8.666;2023-07-29T10:07:48;4.20;;;1.75;;
74894;SDS011;63447;49.446;8.666;2023-07-29T10:10:16;4.30;;;1.50;;
74894;SDS011;63447;49.446;8.666;2023-07-29T10:12:44;3.95;;;1.70;;
74894;SDS011;63447;49.446;8.666;2023-07-29T10:15:10;3.50;;;1.60;;
74894;SDS011;63447;49.446;8.666;2023-07-29T10:17:37;3.67;;;1.40;;
74894;SDS011;63447;49.446;8.666;2023-07-29T10:20:06;3.63;;;1.60;;
74894;SDS011;63447;49.446;8.666;2023-07-29T10:22:43;3.70;;;1.55;;
74894;SDS011;63447;49.446;8.666;2023-07-29T10:27:47;3.38;;;1.30;;
74894;SDS011;63447;49.446;8.666;2023-07-29T10:30:21;4.13;;;1.40;;
74894;SDS011;63447;49.446;8.666;2023-07-29T10:32:46;3.70;;;1.73;;
74894;SDS011;63447;49.446;8.666;2023-07-29T10:35:14;4.82;;;1.60;;
74894;SDS011;63447;49.446;8.666;2023-07-29T10:37:41;4.10;;;1.50;;
74894;SDS011;63447;49.446;8.666;2023-07-29T10:40:08;3.42;;;1.40;;
74894;SDS011;63447;49.446;8.666;2023-07-29T10:42:34;3.83;;;1.45;;
74894;SDS011;63447;49.446;8.666;2023-07-29T10:45:00;4.28;;;1.63;;
74894;SDS011;63447;49.446;8.666;2023-07-29T10:47:44;3.85;;;1.42;;
74894;SDS011;63447;49.446;8.666;2023-07-29T10:50:21;4.88;;;1.50;;
74894;SDS011;63447;49.446;8.666;2023-07-29T10:52:52;3.90;;;1.33;;
74894;SDS011;63447;49.446;8.666;2023-07-29T10:55:23;4.88;;;1.50;;
74894;SDS011;63447;49.446;8.666;2023-07-29T10:58:04;4.53;;;1.67;;
74894;SDS011;63447;49.446;8.666;2023-07-29T11:00:32;3.60;;;1.40;;
74894;SDS011;63447;49.446;8.666;2023-07-29T11:03:01;4.22;;;1.70;;
74894;SDS011;63447;49.446;8.666;2023-07-29T11:05:49;5.78;;;1.67;;
74894;SDS011;63447;49.446;8.666;2023-07-29T11:10:45;3.85;;;1.50;;
74894;SDS011;63447;49.446;8.666;2023-07-29T11:13:23;4.70;;;1.40;;
74894;SDS011;63447;49.446;8.666;2023-07-29T11:15:53;3.92;;;1.40;;
74894;SDS011;63447;49.446;8.666;2023-07-29T11:18:20;5.20;;;1.77;;
74894;SDS011;63447;49.446;8.666;2023-07-29T11:20:46;3.25;;;1.20;;
74894;SDS011;63447;49.446;8.666;2023-07-29T11:23:12;3.40;;;1.50;;
74894;SDS011;63447;49.446;8.666;2023-07-29T11:25:40;3.97;;;1.52;;
74894;SDS011;63447;49.446;8.666;2023-07-29T11:28:06;4.88;;;1.42;;
74894;SDS011;63447;49.446;8.666;2023-07-29T11:30:33;3.67;;;1.30;;
74894;SDS011;63447;49.446;8.666;2023-07-29T11:32:59;3.45;;;1.40;;
74894;SDS011;63447;49.446;8.666;2023-07-29T11:35:26;4.75;;;1.60;;
74894;SDS011;63447;49.446;8.666;2023-07-29T11:37:54;4.05;;;1.52;;
74894;SDS011;63447;49.446;8.666;2023-07-29T11:40:23;4.22;;;1.50;;
74894;SDS011;63447;49.446;8.666;2023-07-29T11:42:49;3.75;;;1.50;;
74894;SDS011;63447;49.446;8.666;2023-07-29T11:45:20;3.20;;;1.33;;
74894;SDS011;63447;49.446;8.666;2023-07-29T11:47:47;3.30;;;1.20;;
74894;SDS011;63447;49.446;8.666;2023-07-29T11:50:13;3.47;;;1.30;;
74894;SDS011;63447;49.446;8.666;2023-07-29T11:52:42;3.20;;;1.20;;
74894;SDS011;63447;49.446;8.666;2023-07-29T11:55:11;5.03;;;1.30;;
74894;SDS011;63447;49.446;8.666;2023-07-29T11:57:38;4.43;;;1.50;;
74894;SDS011;63447;49.446;8.666;2023-07-29T12:00:07;3.28;;;1.05;;
74894;SDS011;63447;49.446;8.666;2023-07-29T12:02:37;3.33;;;1.20;;
74894;SDS011;63447;49.446;8.666;2023-07-29T12:05:09;4.10;;;1.20;;
74894;SDS011;63447;49.446;8.666;2023-07-29T12:07:35;4.75;;;1.30;;
74894;SDS011;63447;49.446;8.666;2023-07-29T12:10:03;3.00;;;1.10;;
74894;SDS011;63447;49.446;8.666;2023-07-29T12:12:31;3.67;;;1.13;;
74894;SDS011;63447;49.446;8.666;2023-07-29T12:14:59;3.63;;;1.30;;
74894;SDS011;63447;49.446;8.666;2023-07-29T12:17:26;5.90;;;1.10;;
74894;SDS011;63447;49.446;8.666;2023-07-29T12:19:54;3.47;;;1.17;;
74894;SDS011;63447;49.446;8.666;2023-07-29T12:22:20;3.70;;;1.27;;
74894;SDS011;63447;49.446;8.666;2023-07-29T12:24:45;3.30;;;1.20;;
74894;SDS011;63447;49.446;8.666;2023-07-29T12:27:12;3.33;;;1.25;;
74894;SDS011;63447;49.446;8.666;2023-07-29T12:29:42;4.07;;;1.50;;
74894;SDS011;63447;49.446;8.666;2023-07-29T12:32:10;4.30;;;1.70;;
74894;SDS011;63447;49.446;8.666;2023-07-29T12:34:36;3.20;;;1.27;;
74894;SDS011;63447;49.446;8.666;2023-07-29T12:37:05;3.70;;;1.42;;
74894;SDS011;63447;49.446;8.666;2023-07-29T12:39:34;3.50;;;1.30;;
74894;SDS011;63447;49.446;8.666;2023-07-29T12:42:07;3.33;;;1.20;;
74894;SDS011;63447;49.446;8.666;2023-07-29T12:44:35;3.35;;;1.20;;
74894;SDS011;63447;49.446;8.666;2023-07-29T12:47:01;3.33;;;1.40;;
74894;SDS011;63447;49.446;8.666;2023-07-29T12:49:28;3.75;;;1.38;;
74894;SDS011;63447;49.446;8.666;2023-07-29T12:51:56;3.80;;;1.52;;
74894;SDS011;63447;49.446;8.666;2023-07-29T12:54:25;3.55;;;1.38;;
74894;SDS011;63447;49.446;8.666;2023-07-29T12:56:50;3.83;;;1.50;;
74894;SDS011;63447;49.446;8.666;2023-07-29T12:59:18;4.35;;;1.40;;
74894;SDS011;63447;49.446;8.666;2023-07-29T13:01:44;3.30;;;1.30;;
74894;SDS011;63447;49.446;8.666;2023-07-29T13:04:09;4.27;;;1.20;;
74894;SDS011;63447;49.446;8.666;2023-07-29T13:06:35;3.47;;;1.42;;
74894;SDS011;63447;49.446;8.666;2023-07-29T13:09:00;4.00;;;1.20;;
74894;SDS011;63447;49.446;8.666;2023-07-29T13:11:31;3.40;;;1.35;;
74894;SDS011;63447;49.446;8.666;2023-07-29T13:13:57;3.00;;;1.13;;
74894;SDS011;63447;49.446;8.666;2023-07-29T13:16:25;3.70;;;1.30;;
74894;SDS011;63447;49.446;8.666;2023-07-29T13:18:51;4.40;;;1.30;;
74894;SDS011;63447;49.446;8.666;2023-07-29T13:21:19;3.13;;;1.20;;
74894;SDS011;63447;49.446;8.666;2023-07-29T13:23:44;3.75;;;1.20;;
74894;SDS011;63447;49.446;8.666;2023-07-29T13:26:10;3.37;;;1.20;;
74894;SDS011;63447;49.446;8.666;2023-07-29T13:28:36;3.85;;;1.23;;
74894;SDS011;63447;49.446;8.666;2023-07-29T13:31:01;4.30;;;1.30;;
74894;SDS011;63447;49.446;8.666;2023-07-29T13:33:29;3.58;;;1.30;;
74894;SDS011;63447;49.446;8.666;2023-07-29T13:35:58;3.92;;;1.40;;
74894;SDS011;63447;49.446;8.666;2023-07-29T13:38:24;3.47;;;1.35;;
74894;SDS011;63447;49.446;8.666;2023-07-29T13:40:54;3.35;;;1.30;;
74894;SDS011;63447;49.446;8.666;2023-07-29T13:43:22;3.60;;;1.30;;
74894;SDS011;63447;49.446;8.666;2023-07-29T13:45:47;3.87;;;1.40;;
74894;SDS011;63447;49.446;8.666;2023-07-29T13:48:14;3.45;;;1.10;;
74894;SDS011;63447;49.446;8.666;2023-07-29T13:50:39;3.20;;;1.00;;
74894;SDS011;63447;49.446;8.666;2023-07-29T13:53:06;4.30;;;1.30;;
74894;SDS011;63447;49.446;8.666;2023-07-29T13:55:34;4.85;;;1.45;;
74894;SDS011;63447;49.446;8.666;2023-07-29T13:57:59;3.90;;;1.27;;
74894;SDS011;63447;49.446;8.666;2023-07-29T14:00:27;3.10;;;1.03;;
74894;SDS011;63447;49.446;8.666;2023-07-29T14:02:55;4.18;;;1.40;;
74894;SDS011;63447;49.446;8.666;2023-07-29T14:05:20;3.97;;;1.30;;
74894;SDS011;63447;49.446;8.666;2023-07-29T14:07:50;3.60;;;1.08;;
74894;SDS011;63447;49.446;8.666;2023-07-29T14:10:18;4.03;;;1.30;;
74894;SDS011;63447;49.446;8.666;2023-07-29T14:12:46;3.75;;;1.50;;
74894;SDS011;63447;49.446;8.666;2023-07-29T14:15:11;3.30;;;1.20;;
74894;SDS011;63447;49.446;8.666;2023-07-29T14:17:36;3.70;;;1.10;;
74894;SDS011;63447;49.446;8.666;2023-07-29T14:20:02;4.03;;;1.30;;
74894;SDS011;63447;49.446;8.666;2023-07-29T14:22:32;5.35;;;1.40;;
74894;SDS011;63447;49.446;8.666;2023-07-29T14:24:57;4.95;;;1.30;;
74894;SDS011;63447;49.446;8.666;2023-07-29T14:27:22;3.87;;;1.30;;
74894;SDS011;63447;49.446;8.666;2023-07-29T14:29:48;3.87;;;1.30;;
74894;SDS011;63447;49.446;8.666;2023-07-29T14:32:13;3.93;;;1.50;;
74894;SDS011;63447;49.446;8.666;2023-07-29T14:34:40;3.97;;;1.30;;
74894;SDS011;63447;49.446;8.666;2023-07-29T14:37:06;3.63;;;1.20;;
74894;SDS011;63447;49.446;8.666;2023-07-29T14:39:31;3.10;;;1.10;;
74894;SDS011;63447;49.446;8.666;2023-07-29T14:41:56;3.20;;;1.20;;
74894;SDS011;63447;49.446;8.666;2023-07-29T14:44:24;3.25;;;1.25;;
74894;SDS011;63447;49.446;8.666;2023-07-29T14:46:50;3.17;;;1.00;;
74894;SDS011;63447;49.446;8.666;2023-07-29T14:49:15;3.73;;;1.20;;
74894;SDS011;63447;49.446;8.666;2023-07-29T14:51:40;4.50;;;1.20;;
74894;SDS011;63447;49.446;8.666;2023-07-29T14:54:05;3.33;;;1.30;;
74894;SDS011;63447;49.446;8.666;2023-07-29T14:56:33;7.20;;;1.83;;
74894;SDS011;63447;49.446;8.666;2023-07-29T14:59:01;3.83;;;1.50;;
74894;SDS011;63447;49.446;8.666;2023-07-29T15:01:29;5.00;;;1.50;;
74894;SDS011;63447;49.446;8.666;2023-07-29T15:03:54;3.30;;;1.20;;
74894;SDS011;63447;49.446;8.666;2023-07-29T15:06:19;4.20;;;1.37;;
74894;SDS011;63447;49.446;8.666;2023-07-29T15:08:45;3.45;;;1.45;;